Estación Meteorológica Peña el Pijo (Robertgarden) [ 12/09/19 16:24:32 CET ]

Fecha Hora Presion(HPa) Temp (°C) Humedad % Rocio (°C) Viento ( m/s) Direccion Lluvia 1Hora(mm) Lluvia 24H(mm) LLuvia Total(mm)
2019-Nov-20 01:01:49 1003.200 -0.9 82 -3.6         31.59
2019-Nov-20 02:03:53 1002.600 -0.6 83 -3.1         31.59
2019-Nov-20 03:02:05 1002.200 -0.8 83 -3.3         31.59
2019-Nov-20 04:01:57 1001.800 -1.7 84 -4.1         31.59
2019-Nov-20 05:01:48 1001.600 -1.9 85 -4.1         31.59
2019-Nov-20 06:01:43 1001.300 -2.6 84 -5.0         31.59
2019-Nov-20 07:02:04 1000.900 -3.1 85 -5.3         31.59
2019-Nov-20 08:01:49 1000.900 -3.2 85 -5.4         31.59
2019-Nov-20 09:02:04 1001.000 -2.0 85 -4.2         31.59
2019-Nov-20 10:09:25 1001.000 - - - - NNW     31.59
2019-Nov-20 11:01:35 1000.500 8.9 64 2.4         31.59
2019-Nov-20 12:01:42 999.800 11.8 41 -1.1         31.59
2019-Nov-20 13:01:53 998.900 14.4 34 -1.4         31.59
2019-Nov-20 14:01:44 998.200 14.1 35 -1.3         31.59
2019-Nov-20 15:01:44 997.900 12.4 40 -0.8         31.59
2019-Nov-20 16:02:06 998.200 9.9 44 -1.9         31.59
2019-Nov-20 17:01:44 998.300 8.4 57 0.3         31.59
2019-Nov-20 18:01:55 998.200 6.1 71 1.3     1.03 1.03 32.63
2019-Nov-20 19:01:55 998.000 5.2 75 1.1       1.03 32.63
2019-Nov-20 20:02:08 998.400 4.7 79 1.3       1.03 32.63
2019-Nov-20 21:01:47 998.500 4.4 81 1.4       1.03 32.63
2019-Nov-20 22:01:47 998.600 4.5 83 1.8       1.03 32.63
2019-Nov-20 23:01:57 998.700 4.5 84 2.0       1.03 32.63

Temperatura Máxima:14°    Temperatura Mínima:-3°
Presión Máxima:1003.200 Hpa    Presión Mínima:997.900 Hpa


Volver